createdAt,value
2023-11-09T00:01:05.891Z,98329.09
2023-11-09T00:04:08.987Z,98331.00
2023-11-09T00:07:10.742Z,98315.38
2023-11-09T00:10:12.594Z,98315.94
2023-11-09T00:13:14.489Z,98318.97
2023-11-09T00:16:16.571Z,98308.13
2023-11-09T00:19:25.994Z,98299.75
2023-11-09T00:22:27.534Z,98304.84
2023-11-09T00:25:29.100Z,98309.63
2023-11-09T00:28:30.652Z,98288.88
2023-11-09T00:31:32.107Z,98307.75
2023-11-09T00:34:35.062Z,98291.53
2023-11-09T00:37:36.682Z,98292.25
2023-11-09T00:40:38.167Z,98280.41
2023-11-09T00:43:39.617Z,98294.38
2023-11-09T00:46:41.666Z,98289.16
2023-11-09T00:49:44.741Z,98295.72
2023-11-09T00:52:46.443Z,98280.78
2023-11-09T00:55:47.949Z,98286.81
2023-11-09T00:58:49.409Z,98286.81
2023-11-09T01:01:51.041Z,98283.06
2023-11-09T01:04:54.076Z,98281.28
2023-11-09T01:07:55.594Z,98275.59
2023-11-09T01:10:57.143Z,98276.63
2023-11-09T01:13:58.591Z,98273.13
2023-11-09T01:17:00.108Z,98277.06
2023-11-09T01:20:02.997Z,98269.50
2023-11-09T01:23:04.631Z,98256.19
2023-11-09T01:26:06.182Z,98249.97
2023-11-09T01:29:07.615Z,98253.47
2023-11-09T01:32:09.089Z,98248.31
2023-11-09T01:35:11.989Z,98252.06
2023-11-09T01:38:13.480Z,98248.50
2023-11-09T01:41:14.966Z,98245.56
2023-11-09T01:44:16.447Z,98246.22
2023-11-09T01:47:17.885Z,98250.84
2023-11-09T01:50:21.575Z,98240.53
2023-11-09T01:53:23.385Z,98247.38
2023-11-09T01:56:24.894Z,98244.84
2023-11-09T01:59:26.413Z,98234.69
2023-11-09T02:02:27.890Z,98223.13
2023-11-09T02:05:30.903Z,98224.09
2023-11-09T02:08:33.015Z,98215.97
2023-11-09T02:11:34.441Z,98219.91
2023-11-09T02:14:36.031Z,98206.38
2023-11-09T02:17:37.736Z,98212.44
2023-11-09T02:20:41.810Z,98201.69
2023-11-09T02:23:43.832Z,98195.97
2023-11-09T02:26:47.368Z,98190.66
2023-11-09T02:29:48.818Z,98187.53
2023-11-09T02:32:50.255Z,98186.97
2023-11-09T02:35:51.723Z,98172.75
2023-11-09T02:38:53.209Z,98172.75
2023-11-09T02:41:56.082Z,98169.81
2023-11-09T02:44:57.668Z,98162.03
2023-11-09T02:47:59.425Z,98160.75
2023-11-09T02:51:00.961Z,98154.66
2023-11-09T02:54:02.669Z,98158.72
2023-11-09T02:57:05.967Z,98160.31
2023-11-09T03:00:10.479Z,98163.66
2023-11-09T03:03:12.100Z,98156.34
2023-11-09T03:06:13.855Z,98154.41
2023-11-09T03:09:15.390Z,98156.19
2023-11-09T03:12:18.354Z,98164.22
2023-11-09T03:15:20.613Z,98156.31
2023-11-09T03:18:23.524Z,98150.53
2023-11-09T03:21:25.154Z,98149.41
2023-11-09T03:24:26.621Z,98151.25
2023-11-09T03:27:29.425Z,98144.31
2023-11-09T03:30:30.957Z,98136.41
2023-11-09T03:33:32.716Z,98136.69
2023-11-09T03:36:34.157Z,98120.50
2023-11-09T03:39:35.715Z,98113.53
2023-11-09T03:42:38.922Z,98111.72
2023-11-09T03:45:40.357Z,98103.47
2023-11-09T03:48:42.114Z,98096.34
2023-11-09T03:51:43.648Z,98087.91
2023-11-09T03:54:45.353Z,98097.63
2023-11-09T03:57:48.153Z,98082.63
2023-11-09T04:00:52.012Z,98079.75
2023-11-09T04:03:53.497Z,98080.41
2023-11-09T04:06:55.461Z,98074.88
2023-11-09T04:09:57.269Z,98066.00
2023-11-09T04:13:00.269Z,98069.28
2023-11-09T04:16:02.063Z,98061.69
2023-11-09T04:19:03.578Z,98061.06
2023-11-09T04:22:05.274Z,98061.94
2023-11-09T04:25:07.496Z,98050.78
2023-11-09T04:28:10.426Z,98064.34
2023-11-09T04:31:11.952Z,98046.84
2023-11-09T04:34:13.586Z,98063.09
2023-11-09T04:37:15.086Z,98040.22
2023-11-09T04:40:17.056Z,98048.66
2023-11-09T04:43:20.336Z,98048.84
2023-11-09T04:46:21.839Z,98047.44
2023-11-09T04:49:23.346Z,98046.78
2023-11-09T04:52:25.216Z,98043.06
2023-11-09T04:55:26.817Z,98053.59
2023-11-09T04:58:30.052Z,98044.13
2023-11-09T05:01:31.743Z,98041.84
2023-11-09T05:04:39.857Z,98037.47
2023-11-09T05:07:41.393Z,98042.16
2023-11-09T05:10:42.804Z,98034.41
2023-11-09T05:13:45.933Z,98035.66
2023-11-09T05:16:47.358Z,98031.56
2023-11-09T05:19:48.960Z,98027.47
2023-11-09T05:22:50.456Z,98031.19
2023-11-09T05:25:55.018Z,98012.91
2023-11-09T05:28:58.185Z,98006.41
2023-11-09T05:31:59.696Z,98009.69
2023-11-09T05:35:07.937Z,98000.41
2023-11-09T05:38:10.350Z,97989.75
2023-11-09T05:41:18.792Z,97989.13
2023-11-09T05:44:21.655Z,97985.47
2023-11-09T05:47:23.220Z,97984.19
2023-11-09T05:50:25.058Z,97986.66
2023-11-09T05:53:26.864Z,97967.88
2023-11-09T05:56:34.691Z,97974.66
2023-11-09T05:59:44.181Z,97967.38
2023-11-09T06:02:45.690Z,97979.56
2023-11-09T06:05:47.362Z,97973.94
2023-11-09T06:08:48.922Z,97984.44
2023-11-09T06:11:50.469Z,97979.69
2023-11-09T06:14:53.404Z,97981.38
2023-11-09T06:17:54.905Z,97985.69
2023-11-09T06:20:56.390Z,97992.31
2023-11-09T06:23:57.903Z,97991.47
2023-11-09T06:26:59.464Z,97990.63
2023-11-09T06:30:02.266Z,97986.09
2023-11-09T06:33:06.023Z,97984.78
2023-11-09T06:36:15.054Z,98002.47
2023-11-09T06:39:16.805Z,97997.03
2023-11-09T06:42:19.836Z,98010.59
2023-11-09T06:45:22.429Z,98017.38
2023-11-09T06:48:35.666Z,98017.19
2023-11-09T06:51:37.097Z,98013.03
2023-11-09T06:54:49.747Z,98009.72
2023-11-09T06:57:52.824Z,98012.97
2023-11-09T07:00:55.269Z,98003.94
2023-11-09T07:03:58.152Z,98013.53
2023-11-09T07:07:05.907Z,98030.38
2023-11-09T07:10:16.153Z,98037.56
2023-11-09T07:13:23.883Z,98052.03
2023-11-09T07:16:25.408Z,98041.28
2023-11-09T07:19:28.335Z,98045.00
2023-11-09T07:22:39.296Z,98042.75
2023-11-09T07:25:41.992Z,98041.94
2023-11-09T07:28:43.588Z,98049.16
2023-11-09T07:31:45.153Z,98052.44
2023-11-09T07:34:48.088Z,98057.75
2023-11-09T07:37:49.495Z,98053.06
2023-11-09T07:40:57.890Z,98060.09
2023-11-09T07:44:06.679Z,98058.81
2023-11-09T07:47:08.086Z,98051.66
2023-11-09T07:50:11.310Z,98053.81
2023-11-09T07:53:13.127Z,98058.22
2023-11-09T07:56:20.950Z,98052.03
2023-11-09T07:59:22.388Z,98053.59
2023-11-09T08:02:23.881Z,98049.91
2023-11-09T08:05:28.940Z,98049.50
2023-11-09T08:08:36.976Z,98036.63
2023-11-09T08:11:47.917Z,98033.16
2023-11-09T08:14:49.390Z,98024.16
2023-11-09T08:17:52.177Z,98035.28
2023-11-09T08:21:01.457Z,98035.31
2023-11-09T08:24:10.155Z,98019.66
2023-11-09T08:27:17.983Z,98024.59
2023-11-09T08:30:19.518Z,97999.94
2023-11-09T08:33:29.100Z,97998.47
2023-11-09T08:36:32.226Z,97998.28
2023-11-09T08:39:33.824Z,98005.41
2023-11-09T08:42:35.848Z,98006.44
2023-11-09T08:45:37.436Z,98016.16
2023-11-09T08:48:52.539Z,98008.09
2023-11-09T08:51:55.350Z,98010.81
2023-11-09T08:55:03.655Z,98017.19
2023-11-09T08:58:05.162Z,98012.50
2023-11-09T09:01:07.378Z,98006.31
2023-11-09T09:04:09.088Z,97997.53
2023-11-09T09:07:24.715Z,98009.91
2023-11-09T09:10:35.784Z,98012.19
2023-11-09T09:13:44.105Z,98015.28
2023-11-09T09:17:01.695Z,98004.22
2023-11-09T09:20:11.303Z,98006.06
2023-11-09T09:23:30.119Z,98005.25
2023-11-09T09:26:31.644Z,97997.22
2023-11-09T09:29:33.139Z,97998.25
2023-11-09T09:32:34.619Z,98008.91
2023-11-09T09:35:42.954Z,98015.72
2023-11-09T09:38:48.741Z,98020.88
2023-11-09T09:42:04.553Z,98028.06
2023-11-09T09:45:06.629Z,98022.28
2023-11-09T09:48:15.355Z,98020.47
2023-11-09T09:51:16.932Z,98012.25
2023-11-09T09:54:19.735Z,98005.44
2023-11-09T09:57:27.926Z,98019.66
2023-11-09T10:00:36.020Z,98007.78
2023-11-09T10:07:19.276Z,98001.84
2023-11-09T10:10:30.960Z,97999.13
2023-11-09T10:13:43.872Z,97995.22
2023-11-09T10:16:45.575Z,97997.63
2023-11-09T10:19:48.284Z,98004.44
2023-11-09T10:22:53.941Z,98004.66
2023-11-09T10:25:58.814Z,97994.19
2023-11-09T10:29:11.363Z,97994.44
2023-11-09T10:32:19.238Z,97990.56
2023-11-09T10:35:22.277Z,97984.38
2023-11-09T10:38:32.754Z,97968.97
2023-11-09T10:41:54.249Z,97967.28
2023-11-09T10:44:57.492Z,97974.28
2023-11-09T10:48:10.538Z,97967.91
2023-11-09T10:51:26.228Z,97965.84
2023-11-09T10:54:32.176Z,97972.03
2023-11-09T10:57:37.310Z,97976.56
2023-11-09T11:00:38.921Z,97965.88
2023-11-09T11:03:49.788Z,97968.56
2023-11-09T11:06:57.887Z,97967.31
2023-11-09T11:09:59.316Z,97966.28
2023-11-09T11:13:07.775Z,97955.59
2023-11-09T11:16:17.638Z,97946.56
2023-11-09T11:19:27.457Z,97939.16
2023-11-09T11:22:44.373Z,97931.16
2023-11-09T11:25:58.334Z,97932.97
2023-11-09T11:29:01.465Z,97920.66
2023-11-09T11:32:17.513Z,97914.06
2023-11-09T11:35:31.931Z,97904.59
2023-11-09T11:38:33.600Z,97906.25
2023-11-09T11:41:42.050Z,97894.97
2023-11-09T11:45:17.658Z,97909.56
2023-11-09T11:48:26.758Z,97907.25
2023-11-09T11:51:39.430Z,97900.06
2023-11-09T11:54:42.129Z,97894.31
2023-11-09T11:58:02.383Z,97888.53
2023-11-09T12:01:05.425Z,97895.13
2023-11-09T12:07:36.358Z,97880.66
2023-11-09T12:10:37.858Z,97883.00
2023-11-09T12:13:39.769Z,97860.38
2023-11-09T12:16:43.141Z,97849.97
2023-11-09T12:19:44.880Z,97835.88
2023-11-09T12:22:46.468Z,97838.53
2023-11-09T12:25:51.865Z,97835.22
2023-11-09T12:28:53.725Z,97821.06
2023-11-09T12:35:32.779Z,97821.19
2023-11-09T12:38:41.146Z,97807.38
2023-11-09T12:41:42.618Z,97808.59
2023-11-09T12:44:56.931Z,97798.72
2023-11-09T12:47:59.792Z,97790.69
2023-11-09T12:51:08.159Z,97777.59
2023-11-09T12:54:09.708Z,97782.75
2023-11-09T12:57:11.207Z,97779.88
2023-11-09T13:00:19.383Z,97776.38
2023-11-09T13:03:22.500Z,97760.13
2023-11-09T13:10:01.864Z,97759.78
2023-11-09T13:13:03.565Z,97782.97
2023-11-09T13:16:15.791Z,97767.78
2023-11-09T13:19:21.239Z,97769.22
2023-11-09T13:22:39.852Z,97758.53
2023-11-09T13:25:48.182Z,97743.94
2023-11-09T13:28:49.763Z,97751.09
2023-11-09T13:31:52.224Z,97744.09
2023-11-09T13:34:55.344Z,97736.47
2023-11-09T13:37:56.951Z,97719.69
2023-11-09T13:41:06.713Z,97722.34
2023-11-09T13:44:08.901Z,97730.94
2023-11-09T13:47:10.636Z,97736.47
2023-11-09T13:50:19.770Z,97722.56
2023-11-09T13:53:21.269Z,97728.75
2023-11-09T13:56:22.754Z,97722.56
2023-11-09T13:59:38.475Z,97731.22
2023-11-09T14:02:39.970Z,97739.22
2023-11-09T14:05:49.943Z,97723.44
2023-11-09T14:08:51.406Z,97728.19
2023-11-09T14:11:59.915Z,97732.13
2023-11-09T14:15:08.460Z,97738.09
2023-11-09T14:18:10.006Z,97748.16
2023-11-09T14:21:19.000Z,97748.41
2023-11-09T14:24:20.727Z,97751.28
2023-11-09T14:27:22.193Z,97741.44
2023-11-09T14:30:30.020Z,97717.22
2023-11-09T14:33:31.528Z,97701.00
2023-11-09T14:36:40.768Z,97711.47
2023-11-09T14:39:49.204Z,97707.16
2023-11-09T14:46:30.618Z,97709.84
2023-11-09T14:49:39.015Z,97705.34
2023-11-09T14:52:51.804Z,97694.69
2023-11-09T14:55:53.388Z,97701.06
2023-11-09T14:58:54.907Z,97704.09
2023-11-09T15:01:56.461Z,97698.78
2023-11-09T15:05:04.568Z,97699.19
2023-11-09T15:08:07.672Z,97704.97
2023-11-09T15:11:16.042Z,97697.59
2023-11-09T15:14:21.134Z,97696.16
2023-11-09T15:17:28.990Z,97697.84
2023-11-09T15:20:30.477Z,97706.66
2023-11-09T15:23:33.279Z,97732.31
2023-11-09T15:26:34.760Z,97734.19
2023-11-09T15:29:36.200Z,97738.50
2023-11-09T15:32:37.779Z,97776.25
2023-11-09T15:35:39.269Z,97774.41
2023-11-09T15:38:49.249Z,97779.72
2023-11-09T15:41:50.960Z,97785.66
2023-11-09T15:44:52.477Z,97794.50
2023-11-09T15:47:54.060Z,97787.53
2023-11-09T15:50:55.567Z,97786.69
2023-11-09T15:54:05.113Z,97773.75
2023-11-09T15:57:20.027Z,97766.34
2023-11-09T16:00:21.498Z,97783.19
2023-11-09T16:03:23.074Z,97759.28
2023-11-09T16:06:30.987Z,97780.59
2023-11-09T16:09:33.924Z,97779.16
2023-11-09T16:12:49.182Z,97773.63
2023-11-09T16:15:58.501Z,97772.97
2023-11-09T16:19:00.277Z,97770.88
2023-11-09T16:22:01.715Z,97768.06
2023-11-09T16:25:06.094Z,97777.84
2023-11-09T16:28:08.607Z,97797.09
2023-11-09T16:31:10.031Z,97798.97
2023-11-09T16:34:11.462Z,97796.50
2023-11-09T16:37:12.897Z,97792.75
2023-11-09T16:40:15.809Z,97798.72
2023-11-09T16:43:23.351Z,97801.38
2023-11-09T16:46:24.984Z,97799.13
2023-11-09T16:49:33.057Z,97795.22
2023-11-09T16:52:34.569Z,97790.16
2023-11-09T16:55:44.521Z,97788.09
2023-11-09T16:58:46.011Z,97783.56
2023-11-09T17:01:54.086Z,97768.22
2023-11-09T17:04:55.620Z,97758.78
2023-11-09T17:07:57.448Z,97748.97
2023-11-09T17:11:07.044Z,97747.97
2023-11-09T17:14:08.703Z,97731.16
2023-11-09T17:17:17.846Z,97725.44
2023-11-09T17:20:19.416Z,97714.34
2023-11-09T17:23:20.975Z,97713.28
2023-11-09T17:26:23.811Z,97703.03
2023-11-09T17:29:25.254Z,97701.19
2023-11-09T17:32:26.959Z,97709.38
2023-11-09T17:35:28.524Z,97723.72
2023-11-09T17:38:29.945Z,97737.69
2023-11-09T17:41:32.738Z,97743.56
2023-11-09T17:44:34.158Z,97739.91
2023-11-09T17:47:35.733Z,97742.81
2023-11-09T17:50:39.342Z,97738.31
2023-11-09T17:53:42.175Z,97727.84
2023-11-09T17:56:44.948Z,97714.47
2023-11-09T17:59:46.364Z,97708.13
2023-11-09T18:02:47.993Z,97708.72
2023-11-09T18:05:49.533Z,97693.91
2023-11-09T18:08:57.063Z,97699.47
2023-11-09T18:12:00.017Z,97692.06
2023-11-09T18:15:01.495Z,97689.41
2023-11-09T18:18:03.019Z,97682.47
2023-11-09T18:21:04.873Z,97661.38
2023-11-09T18:24:13.202Z,97659.94
2023-11-09T18:27:16.843Z,97646.00
2023-11-09T18:30:25.180Z,97635.94
2023-11-09T18:33:33.731Z,97622.44
2023-11-09T18:36:35.250Z,97615.03
2023-11-09T18:39:36.658Z,97606.81
2023-11-09T18:42:45.754Z,97595.50
2023-11-09T18:45:47.185Z,97602.25
2023-11-09T18:48:55.386Z,97591.59
2023-11-09T18:51:56.810Z,97591.25
2023-11-09T18:54:58.491Z,97581.59
2023-11-09T18:58:08.113Z,97578.94
2023-11-09T19:01:09.726Z,97571.56
2023-11-09T19:07:15.705Z,97571.66
2023-11-09T19:10:17.365Z,97546.25
2023-11-09T19:13:20.265Z,97543.56
2023-11-09T19:16:21.786Z,97517.13
2023-11-09T19:19:30.382Z,97514.50
2023-11-09T19:22:32.053Z,97470.81
2023-11-09T19:25:40.142Z,97463.44
2023-11-09T19:28:42.907Z,97467.53
2023-11-09T19:31:58.253Z,97452.38
2023-11-09T19:34:59.700Z,97454.19
2023-11-09T19:38:07.444Z,97434.50
2023-11-09T19:41:08.857Z,97414.63
2023-11-09T19:44:17.758Z,97405.19
2023-11-09T19:47:32.212Z,97393.09
2023-11-09T19:50:33.658Z,97386.09
2023-11-09T19:53:35.104Z,97380.78
2023-11-09T19:56:36.585Z,97382.66
2023-11-09T20:03:15.709Z,97360.84
2023-11-09T20:06:17.269Z,97354.09
2023-11-09T20:09:18.788Z,97352.06
2023-11-09T20:12:26.477Z,97348.78
2023-11-09T20:15:29.442Z,97340.75
2023-11-09T20:18:31.027Z,97339.94
2023-11-09T20:21:39.591Z,97327.00
2023-11-09T20:24:47.913Z,97311.63
2023-11-09T20:27:49.483Z,97311.63
2023-11-09T20:30:58.908Z,97304.66
2023-11-09T20:34:00.461Z,97317.72
2023-11-09T20:37:02.159Z,97296.41
2023-11-09T20:40:03.774Z,97298.44
2023-11-09T20:43:05.239Z,97289.66
2023-11-09T20:46:08.479Z,97294.16
2023-11-09T20:49:10.084Z,97292.13
2023-11-09T20:52:11.504Z,97270.38
2023-11-09T20:55:13.159Z,97265.91
2023-11-09T20:58:14.631Z,97258.38
2023-11-09T21:01:17.494Z,97240.41
2023-11-09T21:04:18.973Z,97270.81
2023-11-09T21:10:55.363Z,97328.38
2023-11-09T21:14:01.557Z,97334.13
2023-11-09T21:17:04.443Z,97354.84
2023-11-09T21:20:26.278Z,97384.75
2023-11-09T21:23:27.738Z,97405.44
2023-11-09T21:29:58.585Z,97455.66
2023-11-09T21:36:30.323Z,97454.03
2023-11-09T21:39:41.402Z,97463.25
2023-11-09T21:42:42.943Z,97463.06
2023-11-09T21:45:50.587Z,97469.63
2023-11-09T21:48:53.464Z,97480.03
2023-11-09T21:51:54.995Z,97481.91
2023-11-09T21:54:56.457Z,97490.50
2023-11-09T21:58:05.165Z,97487.63
2023-11-09T22:01:06.628Z,97492.56
2023-11-09T22:04:16.223Z,97498.09
2023-11-09T22:07:18.006Z,97533.13
2023-11-09T22:10:19.572Z,97574.53
2023-11-09T22:13:21.520Z,97578.16
2023-11-09T22:16:29.886Z,97587.59
2023-11-09T22:19:32.799Z,97565.00
2023-11-09T22:22:34.378Z,97570.69
2023-11-09T22:25:36.418Z,97576.44
2023-11-09T22:28:37.903Z,97546.44
2023-11-09T22:31:39.476Z,97565.38
2023-11-09T22:34:42.492Z,97561.19
2023-11-09T22:37:43.931Z,97547.78
2023-11-09T22:40:45.378Z,97564.34
2023-11-09T22:47:15.809Z,97584.94
2023-11-09T22:50:18.750Z,97591.53
2023-11-09T22:53:20.225Z,97582.22
2023-11-09T22:56:21.686Z,97572.13
2023-11-09T22:59:36.737Z,97571.66
2023-11-09T23:02:38.343Z,97590.47
2023-11-09T23:05:41.560Z,97604.97
2023-11-09T23:08:43.009Z,97600.72
2023-11-09T23:11:44.505Z,97605.47
2023-11-09T23:14:45.964Z,97598.47
2023-11-09T23:17:47.746Z,97585.41
2023-11-09T23:20:57.773Z,97588.72
2023-11-09T23:23:59.462Z,97616.91
2023-11-09T23:27:00.934Z,97602.75
2023-11-09T23:30:02.712Z,97601.03
2023-11-09T23:33:04.280Z,97592.09
2023-11-09T23:36:08.830Z,97602.09
2023-11-09T23:39:10.414Z,97598.28
2023-11-09T23:42:18.395Z,97585.94
2023-11-09T23:45:20.085Z,97581.38
2023-11-09T23:48:21.974Z,97591.28
2023-11-09T23:51:25.119Z,97572.84
2023-11-09T23:54:26.697Z,97585.31
2023-11-09T23:57:28.332Z,97585.97
